Terminal Aerodrome Forecast
Issued by NWS South Bend, IN

Home | Current Version | Previous Version | Graphics & Text | Print | Product List | Glossary On
Versions: 1 2 3 4 5 6 7 8 9 10 11 12 13
000
FTUS43 KIWX 261100
TAFSBN
TAF
KSBN 261120Z 2612/2712 03005KT P6SM SKC
     FM261600 36013G20KT P6SM SCT040
     FM270100 34007KT P6SM SCT040=

USA.gov is the U.S. government's official web portal to all federal, state and local government web resources and services.